• Join FlightAware (Why Join?)
  • Login
  • US Flag 
09:45AM EDT


 

Airport Tracker/Info


-or-


 

Live Flight TrackerFlight Track Log ✈ FFT769 ✈ 10-Nov-2013 ✈ KDEN - KLAS

Flight Track Log - Related Links

Times and Time Zones

All times are in EST time to prevent confusion due to time zone crossing. See the FFT769 flight status page for this flight to view local times or setup timezone preferences in your user account.

Time Position Orientation Groundspeed Altitude Reporting Facility
EST Latitude Longitude Course Direction KTS MPH feet Rate Location/Type
11:26PM 39.8420 -104.7390 180° South 172 198 6,100  Level FlightAware
11:27PM 39.8410 -104.7660 267° West 189 217 6,700 1,020 Climbing FlightAware
11:27PM 39.8400 -104.8060 268° West 228 262 7,100 900 Climbing FlightAware
11:28PM 39.8400 -104.8350 270° West 255 293 7,500 1,500 Climbing FlightAware
11:28PM 39.8390 -104.8670 268° West 274 315 8,100 2,460 Climbing FlightAware
11:28PM 39.8380 -104.9140 268° West 274 315 9,500 2,160 Climbing FlightAware
11:29PM 39.8380 -104.9900 270° West 309 356 10,700 1,320 Climbing FlightAware
11:30PM 39.8340 -105.0320 263° West 336 387 11,000 1,380 Climbing FlightAware
11:30PM 39.8130 -105.1270 254° West 365 420 12,300 2,340 Climbing FlightAware
11:31PM 39.7880 -105.2440 254° West 356 410 15,100 2,280 Climbing FlightAware
11:32PM 39.7680 -105.3390 255° West 380 437 16,200 1,500 Climbing FlightAware
11:33PM 39.7450 -105.4470 255° West 399 459 17,400 1,380 Climbing FlightAware
11:34PM 39.7190 -105.5660 254° West 417 480 18,500 1,440 Climbing FlightAware
11:34PM 39.7000 -105.6630 256° West 423 487 19,600 1,620 Climbing FlightAware
11:35PM 39.6900 -105.7540 262° West 427 491 20,600 1,680 Climbing FlightAware
11:35PM 39.6820 -105.8240 262° West 429 494 21,400 1,560 Climbing FlightAware
11:36PM 39.6680 -105.9470 262° West 432 497 22,600 1,320 Climbing FlightAware
11:37PM 39.6520 -106.0910 262° West 440 506 23,700 1,200 Climbing FlightAware
11:38PM 39.6360 -106.2290 261° West 445 512 24,800 1,080 Climbing FlightAware
11:39PM 39.6140 -106.3530 257° West 457 526 25,500 960 Climbing FlightAware
11:39PM 39.5940 -106.4150 247° West 460 529 26,000 900 Climbing FlightAware
11:40PM 39.5650 -106.5050 247° West 465 535 26,400 840 Climbing FlightAware
11:41PM 39.5210 -106.6440 248° West 468 539 27,300 840 Climbing FlightAware
11:41PM 39.4830 -106.7710 249° West 476 548 27,900 960 Climbing FlightAware
11:42PM 39.4350 -106.9350 249° West 474 545 29,100 1,080 Climbing FlightAware
11:43PM 39.3920 -107.0820 249° West 474 545 30,100 960 Climbing FlightAware
11:44PM 39.3510 -107.2190 249° West 473 544 30,900 1,020 Climbing FlightAware
11:45PM 39.3110 -107.3520 249° West 471 542 31,900 1,260 Climbing FlightAware
11:46PM 39.2710 -107.4860 249° West 461 531 33,100 1,080 Climbing FlightAware
11:47PM 39.2310 -107.6190 249° West 462 532 33,800 840 Climbing FlightAware
11:48PM 39.1850 -107.7680 248° West 457 526 34,700 900 Climbing FlightAware
11:48PM 39.1600 -107.8520 249° West 455 524 35,200 1,080 Climbing FlightAware
11:49PM 39.1390 -107.9190 248° West 449 517 35,800 780 Climbing FlightAware
11:49PM 39.1160 -107.9970 249° West 452 520 36,000 120 Climbing FlightAware
11:50PM 39.0680 -108.1520 248° West 451 519 36,000  Level FlightAware
11:51PM 39.0310 -108.2710 248° West 451 519 36,000  Level FlightAware
11:52PM 38.9960 -108.3830 248° West 451 519 36,000  Level FlightAware
11:52PM 38.9740 -108.4550 249° West 451 519 36,000  Level FlightAware
11:53PM 38.9290 -108.5990 248° West 451 519 36,000  Level FlightAware
11:54PM 38.8890 -108.7240 248° West 452 520 36,000  Level FlightAware
11:55PM 38.8550 -108.8320 248° West 453 521 36,000  Level FlightAware
11:56PM 38.8210 -108.9410 248° West 454 522 36,000  Level FlightAware
11:57PM 38.7790 -109.0720 248° West 453 521 36,000  Level FlightAware
11:57PM 38.7450 -109.1790 248° West 453 521 36,000  Level FlightAware
11:58PM 38.7050 -109.3040 248° West 452 520 36,000  Level FlightAware
11:59PM 38.6750 -109.3980 248° West 451 519 36,000  Level FlightAware
12:00AM 38.6320 -109.5300 247° West 452 520 36,000  Level FlightAware
12:01AM 38.5910 -109.6560 247° West 454 522 36,000  Level FlightAware
12:01AM 38.5640 -109.7400 248° West 454 522 36,000  Level FlightAware
12:02AM 38.5230 -109.8660 247° West 455 524 36,000  Level FlightAware
12:03AM 38.4840 -109.9820 247° West 455 524 36,000  Level FlightAware
12:04AM 38.4410 -110.1130 247° West 455 524 36,000  Level FlightAware
12:04AM 38.3990 -110.2400 247° West 454 522 36,000  Level FlightAware
12:05AM 38.3590 -110.3630 248° West 454 522 36,000  Level FlightAware
12:06AM 38.3220 -110.4650 245° Southwest 456 525 36,000  Level FlightAware
12:06AM 38.2930 -110.5290 240° Southwest 457 526 36,000  Level FlightAware
12:08AM 38.2190 -110.6890 240° Southwest 457 526 36,000  Level FlightAware
12:08AM 38.1640 -110.8090 240° Southwest 457 526 36,000 -180 Level FlightAware
12:09AM 38.1070 -110.9320 240° Southwest 457 526 35,700 -480 Descending FlightAware
12:10AM 38.0430 -111.0710 240° Southwest 459 528 35,200 -420 Descending FlightAware
12:11AM 37.9930 -111.1790 240° Southwest 459 528 35,000 -120 Descending FlightAware
12:12AM 37.9320 -111.3090 239° Southwest 457 526 35,000  Level FlightAware
12:13AM 37.8960 -111.3860 239° Southwest 458 527 35,000  Level FlightAware
12:13AM 37.8450 -111.4930 239° Southwest 458 527 35,000  Level FlightAware
12:14AM 37.8180 -111.5520 240° Southwest 457 526 35,000  Level FlightAware
12:15AM 37.7700 -111.6520 239° Southwest 457 526 35,000  Level FlightAware
12:15AM 37.7180 -111.7630 239° Southwest 456 525 35,000  Level FlightAware
12:16AM 37.6730 -111.8570 239° Southwest 456 525 35,000 -1,200 Level FlightAware
12:17AM 37.6110 -111.9870 239° Southwest 505 581 33,200 -1,320 Descending FlightAware
12:19AM 37.5090 -112.2000 239° Southwest 471 542 32,000 -540 Descending FlightAware
12:19AM 37.4640 -112.2930 239° Southwest 466 536 32,000  Level FlightAware
12:20AM 37.4000 -112.4260 239° Southwest 464 534 32,000  Level FlightAware
12:21AM 37.3480 -112.5320 238° Southwest 464 534 32,000  Level FlightAware
12:22AM 37.3100 -112.6100 239° Southwest 464 534 32,000  Level FlightAware
12:22AM 37.2600 -112.7130 239° Southwest 465 535 32,000  Level FlightAware
12:23AM 37.2200 -112.7940 238° Southwest 465 535 32,000  Level FlightAware
12:24AM 37.1630 -112.9110 239° Southwest 464 534 32,000  Level FlightAware
12:25AM 37.1020 -113.0340 238° Southwest 462 532 32,000  Level FlightAware
12:25AM 37.0520 -113.1350 238° Southwest 462 532 32,000  Level FlightAware
12:26AM 36.9900 -113.2610 238° Southwest 461 531 32,000 -360 Level FlightAware
12:27AM 36.9390 -113.3630 238° Southwest 458 527 31,400 -1,800 Descending FlightAware
12:28AM 36.8770 -113.4870 238° Southwest 450 518 29,000 -2,400 Descending FlightAware
12:28AM 36.8440 -113.5520 238° Southwest 432 497 28,000 -2,220 Descending FlightAware
12:29AM 36.8130 -113.6150 238° Southwest 424 488 26,600 -2,880 Descending FlightAware
12:30AM 36.7670 -113.7070 238° Southwest 420 483 24,400 -3,000 Descending FlightAware
12:30AM 36.7420 -113.7560 238° Southwest 413 475 23,400 -2,520 Descending FlightAware
12:31AM 36.6900 -113.8580 238° Southwest 404 465 21,300 -2,460 Descending FlightAware
12:32AM 36.6400 -113.9580 238° Southwest 408 470 19,300 -2,400 Descending FlightAware
12:32AM 36.6100 -114.0170 238° Southwest 402 463 18,100 -2,280 Descending FlightAware
12:33AM 36.5570 -114.1250 239° Southwest 394 453 16,100 -2,220 Descending FlightAware
12:34AM 36.5350 -114.1740 241° Southwest 395 455 15,200 -1,980 Descending FlightAware
12:35AM 36.4760 -114.3020 240° Southwest 377 434 13,100 -1,620 Descending FlightAware
12:35AM 36.4520 -114.3550 241° Southwest 354 407 12,700 -840 Descending FlightAware
12:36AM 36.4100 -114.4460 240° Southwest 310 357 12,000 -780 Descending FlightAware
12:37AM 36.3860 -114.4790 228° Southwest 300 345 11,700 -780 Descending FlightAware
12:37AM 36.3450 -114.4880 190° South 304 350 11,300 -1,020 Descending FlightAware
12:38AM 36.2960 -114.4900 182° South 293 337 10,600 -1,140 Descending FlightAware
12:38AM 36.2260 -114.4920 181° South 290 334 9,700 -1,080 Descending FlightAware
12:39AM 36.2010 -114.4930 182° South 294 338 9,400 -960 Descending FlightAware
12:39AM 36.1650 -114.4960 184° South 281 323 9,000 -840 Descending FlightAware
12:40AM 36.1390 -114.5150 211° Southwest 267 307 8,700 -600 Descending FlightAware
12:40AM 36.1250 -114.5540 246° West 250 288 8,500 -480 Descending FlightAware
12:41AM 36.1110 -114.6020 250° West 243 280 8,200 -540 Descending FlightAware
12:41AM 36.1010 -114.6350 249° West 246 283 8,000 -480 Descending FlightAware
12:42AM 36.0880 -114.6760 249° West 246 283 7,800 -240 Descending FlightAware
12:42AM 36.0800 -114.7010 248° West 243 280 7,800  Level FlightAware
12:42AM 36.0750 -114.7210 253° West 249 287 7,800 -360 Level FlightAware
12:43AM 36.0730 -114.7730 267° West 248 285 7,500 -840 Descending FlightAware
12:43AM 36.0730 -114.8130 270° West 247 284 6,900 -1,440 Descending FlightAware
12:44AM 36.0730 -114.8560 270° West 247 284 6,100 -1,440 Descending FlightAware
12:44AM 36.0740 -114.8970 272° West 228 262 5,500 -1,200 Descending FlightAware
12:45AM 36.0740 -114.9460 270° West 211 243 4,700 -1,200 Descending FlightAware
12:45AM 36.0740 -114.9690 270° West 200 230 4,300 -1,140 Descending FlightAware
12:46AM 36.0740 -115.0140 270° West 194 223 3,600 -1,080 Descending FlightAware
12:47AM 36.0740 -115.0510 270° West 175 201 3,000 -960 Descending FlightAware
12:47AM 36.0740 -115.0770 270° West 151 174 2,600 -780 Descending FlightAware
12:47AM 36.0740 -115.1010 270° West 145 167 2,300 -780 Descending FlightAware
12:48AM 36.0740 -115.1280 270° West 136 157 1,800 -900 Descending FlightAware